Skip to main content.

Nearby METAR Reports

 

KJYR - York, Nebraska, USA
Distance from station: NW 27mi, 43km
Updated: Fri, 22-Sep-2017 1:35pm CDT
Clear
Clear
 Wind from S
Wind: S 23 mph , 37 km/h, Gust: 30 mph , 48 km/h
Temperature: 91°F , 33°C
Heat Index: 94°F , 34°C
Dew Point: 66°F , 19°C
Humidity: 44%
Barometer: 29.80 inHg , 1009.1 hPa
Clouds: Clear
Visibility: 10 miles , 16 km
2017/09/22 18:35 KJYR 221835Z AUTO 18020G26KT 10SM CLR 33/19 A2980 RMK AO2
KLNK - Lincoln, Nebraska, USA
Distance from station: ENE 27mi, 44km
Updated: Fri, 22-Sep-2017 12:54pm CDT
Clear
Clear
 Wind from S
Wind: S 24 mph , 39 km/h, Gust: 29 mph , 46 km/h
Temperature: 93°F , 34°C
Heat Index: 96°F , 36°C
Dew Point: 66°F , 19°C
Humidity: 41%
Barometer: 29.82 inHg , 1009.8 hPa
Clouds: Clear
Visibility: 10 miles , 16 km
2017/09/22 17:54 KLNK 221754Z 18021G25KT 10SM CLR 34/19 A2982 RMK AO2 PK WND 17029/1741 SLP081 T03390194 10344 20239 58003
 
KBIE - Beatrice Municip, Nebraska, USA
Distance from station: SE 36mi, 58km
Updated: Fri, 22-Sep-2017 1:35pm CDT
Clear
Clear
 Wind from S
Wind: S 15 mph , 24 km/h, Gust: 25 mph , 41 km/h
Temperature: 93°F , 34°C
Heat Index: 99°F , 37°C
Dew Point: 70°F , 21°C
Humidity: 47%
Barometer: 29.84 inHg , 1010.5 hPa
Clouds: Clear
Visibility: 10 miles , 16 km
2017/09/22 18:35 KBIE 221835Z AUTO 18013G22KT 10SM CLR 34/21 A2984 RMK AO2 T03400209
KHJH - Hebron Muni, Nebraska, USA
Distance from station: SSW 40mi, 64km
Updated: Fri, 22-Sep-2017 1:35pm CDT
Clear
Clear
 Wind from SSW
Wind: SSW 17 mph , 28 km/h, Gust: 28 mph , 44 km/h
Temperature: 93°F , 34°C
Heat Index: 96°F , 36°C
Dew Point: 66°F , 19°C
Humidity: 41%
Barometer: 29.82 inHg , 1009.8 hPa
Clouds: Clear
Visibility: 10 miles , 16 km
2017/09/22 18:35 KHJH 221835Z AUTO 20015G24KT 10SM CLR 34/19 A2982 RMK AO2 T03410185
 
KAUH - Aurora, Nebraska, USA
Distance from station: WNW 44mi, 70km
Updated: Fri, 22-Sep-2017 1:35pm CDT
Clear
Clear
 Wind from S
Wind: S 18 mph , 30 km/h, Gust: 25 mph , 41 km/h
Temperature: 91°F , 33°C
Heat Index: 93°F , 34°C
Dew Point: 64°F , 18°C
Humidity: 41%
Barometer: 29.78 inHg , 1008.5 hPa
Clouds: Clear
Visibility: 10 miles , 16 km
2017/09/22 18:35 KAUH 221835Z AUTO 17016G22KT 10SM CLR 33/18 A2978 RMK AO2 T03300182
KAHQ - Wahoo, Nebraska, USA
Distance from station: NE 51mi, 82km
Updated: Fri, 22-Sep-2017 1:35pm CDT
Clear
Clear
 Wind from SSE
Wind: SSE 24 mph , 39 km/h, Gust: 31 mph , 50 km/h
Temperature: 93°F , 34°C
Heat Index: 96°F , 36°C
Dew Point: 66°F , 19°C
Humidity: 41%
Barometer: 29.80 inHg , 1009.1 hPa
Clouds: Clear
Visibility: 10 miles , 16 km
2017/09/22 18:35 KAHQ 221835Z AUTO 16021G27KT 10SM CLR 34/19 A2980 RMK AO2 T03410189
 
KOLU - Columbus Muni, Nebraska, USA
Distance from station: N 55mi, 88km
Updated: Fri, 22-Sep-2017 12:56pm CDT
Clear
Clear
 Wind from S
Wind: S 21 mph , 33 km/h, Gust: 29 mph , 46 km/h
Temperature: 91°F , 33°C
Heat Index: 95°F , 35°C
Dew Point: 68°F , 20°C
Humidity: 46%
Barometer: 29.78 inHg , 1008.5 hPa
Clouds: Clear
Visibility: 10 miles , 16 km
2017/09/22 17:56 KOLU 221756Z AUTO 19018G25KT 10SM CLR 33/20 A2978 RMK AO2 PK WND 17028/1721 SLP069 T03330200 10333 20239 58005
KGRI - Grand Island, Nebraska, USA
Distance from station: WNW 61mi, 99km
Updated: Fri, 22-Sep-2017 1:53pm CDT
Clear
Clear
 Wind from S
Wind: S 21 mph , 33 km/h, Gust: 33 mph , 54 km/h
Temperature: 93°F , 34°C
Dew Point: 64°F , 18°C
Humidity: 39%
Barometer: 29.76 inHg , 1007.8 hPa
Clouds: Clear
Visibility: 10 miles , 16 km
2017/09/22 18:53 KGRI 221853Z 18018G29KT 10SM CLR 34/18 A2976 RMK AO2 PK WND 19033/1833 SLP060 T03440183
 
KHSI - Hastings, Nebraska, USA
Distance from station: W 64mi, 103km
Updated: Fri, 22-Sep-2017 12:53pm CDT
Clear
Clear
 Wind from S
Wind: S 20 mph , 31 km/h, Gust: 30 mph , 48 km/h
Temperature: 91°F , 33°C
Dew Point: 63°F , 17°C
Humidity: 38%
Barometer: 29.79 inHg , 1008.8 hPa
Clouds: Clear
Visibility: 10 miles , 16 km
2017/09/22 17:53 KHSI 221753Z AUTO 19017G26KT 10SM CLR 33/17 A2979 RMK AO2 PK WND 20031/1711 SLP065 T03330167 10333 20239 58004
KFET - Fremont Muni Arp, Nebraska, USA
Distance from station: NNE 66mi, 106km
Updated: Fri, 22-Sep-2017 1:35pm CDT
Clear
Clear
 Wind from SSE
Wind: SSE 17 mph , 28 km/h, Gust: 26 mph , 43 km/h
Temperature: 91°F , 33°C
Heat Index: 95°F , 35°C
Dew Point: 68°F , 20°C
Humidity: 46%
Barometer: 29.80 inHg , 1009.1 hPa
Clouds: Clear
Visibility: 10 miles , 16 km
2017/09/22 18:35 KFET 221835Z AUTO 16015G23KT 10SM CLR 33/20 A2980 RMK AO2 T03320195
 
KMLE - Omaha/Millard, Nebraska, USA
Distance from station: NE 69mi, 110km
Updated: Fri, 22-Sep-2017 1:30pm CDT
Clear
Clear
 Wind from S
Wind: S 15 mph , 24 km/h, Gust: 24 mph , 39 km/h
Temperature: 95°F , 35°C
Heat Index: 103°F , 39°C
Dew Point: 72°F , 22°C
Humidity: 47%
Barometer: 29.82 inHg , 1009.8 hPa
Clouds: Clear
Visibility: 10 miles , 16 km
2017/09/22 18:30 KMLE 221830Z AUTO 17013G21KT 10SM CLR 35/22 A2982 RMK AO2 T03450218
KPMV - Plattsmouth Muni, Nebraska, USA
Distance from station: ENE 71mi, 114km
Updated: Fri, 22-Sep-2017 1:35pm CDT
Clear
Clear
 Wind from SSE
Wind: SSE 15 mph , 24 km/h, Gust: 28 mph , 44 km/h
Temperature: 93°F , 34°C
Heat Index: 99°F , 37°C
Dew Point: 70°F , 21°C
Humidity: 47%
Barometer: 29.85 inHg , 1010.8 hPa
Clouds: Clear
Visibility: 10 miles , 16 km
2017/09/22 18:35 KPMV 221835Z AUTO 16013G24KT 10SM CLR 34/21 A2985 RMK AO2 T03350213
 
KAFK - Nebraska City, Nebraska, USA
Distance from station: E 72mi, 116km
Updated: Fri, 22-Sep-2017 1:35pm CDT
Clear
Clear
 Wind from S
Wind: S 23 mph , 37 km/h, Gust: 26 mph , 43 km/h
Temperature: 91°F , 33°C
Heat Index: 98°F , 37°C
Dew Point: 72°F , 22°C
Humidity: 52%
Barometer: 29.87 inHg , 1011.5 hPa
Clouds: Clear
Visibility: 10 miles , 16 km
2017/09/22 18:35 KAFK 221835Z AUTO 18020G23KT 10SM CLR 33/22 A2987 RMK AO2 T03260217
KOFF - Offutt Afb/Belle, Nebraska, USA
Distance from station: ENE 75mi, 121km
Updated: Fri, 22-Sep-2017 12:56pm CDT
Clear
Clear
 Wind from SE
Wind: SE 15 mph , 24 km/h, Gust: 24 mph , 39 km/h
Temperature: 90°F , 32°C
Heat Index: 97°F , 36°C
Dew Point: 72°F , 22°C
Humidity: 55%
Barometer: 29.84 inHg , 1010.5 hPa
Clouds: Clear
Visibility: 10 miles , 16 km
2017/09/22 17:56 KOFF 221756Z AUTO 14013G21KT 10SM CLR 32/22 A2984 RMK AO2 PK WND 14027/06 SLP098 T03240215 10325 20236 58003 $
 
KBTA - Blair Muni, Nebraska, USA
Distance from station: NE 78mi, 125km
Updated: Fri, 22-Sep-2017 1:35pm CDT
Clear
Clear
 Wind from S
Wind: S 23 mph , 37 km/h, Gust: 30 mph , 48 km/h
Temperature: 91°F , 33°C
Heat Index: 96°F , 36°C
Dew Point: 70°F , 21°C
Humidity: 49%
Barometer: 29.82 inHg , 1009.8 hPa
Clouds: Clear
Visibility: 10 miles , 16 km
2017/09/22 18:35 KBTA 221835Z AUTO 17020G26KT 10SM CLR 33/21 A2982 RMK AO2 T03320210
KCNK - Concordia, Kansas, USA
Distance from station: SSW 80mi, 129km
Updated: Fri, 22-Sep-2017 12:55pm CDT
Clear
Clear
 Wind from S
Wind: S 22 mph , 35 km/h, Gust: 30 mph , 48 km/h
Temperature: 88°F , 31°C
Heat Index: 93°F , 34°C
Dew Point: 70°F , 21°C
Humidity: 55%
Barometer: 29.84 inHg , 1010.5 hPa
Clouds: Clear
Visibility: 10 miles , 16 km
2017/09/22 17:55 KCNK 221755Z AUTO 17019G26KT 10SM CLR 31/21 A2984 RMK AO2 PK WND 17026/1732 SLP085 T03110211 10311 20239 58001
 
KOMA - Omaha/Eppley, Nebraska, USA
Distance from station: NE 82mi, 133km
Updated: Fri, 22-Sep-2017 1:52pm CDT
Few Clouds
Few Clouds
 Wind from SSE
Wind: SSE 22 mph , 35 km/h, Gust: 33 mph , 54 km/h
Temperature: 91°F , 33°C
Heat Index: 96°F , 36°C
Dew Point: 70°F , 21°C
Humidity: 49%
Barometer: 29.82 inHg , 1009.8 hPa
Clouds: Few Clouds
Visibility: 10 miles , 16 km
Cloud details: Few Clouds 14000 ft
2017/09/22 18:52 KOMA 221852Z 16019G29KT 10SM FEW140 33/21 A2982 RMK AO2 PK WND 15029/1847 SLP086 T03330211
KBVN - Albion Muni, Nebraska, USA
Distance from station: NNW 86mi, 138km
Updated: Fri, 22-Sep-2017 1:35pm CDT
Clear
Clear
 Wind from S
Wind: S 21 mph , 33 km/h, Gust: 31 mph , 50 km/h
Temperature: 91°F , 33°C
Heat Index: 95°F , 35°C
Dew Point: 68°F , 20°C
Humidity: 46%
Barometer: 29.75 inHg , 1007.5 hPa
Clouds: Clear
Visibility: 10 miles , 16 km
2017/09/22 18:35 KBVN 221835Z AUTO 18018G27KT 10SM CLR 33/20 A2975 RMK AO2 T03310203
 
KCBF - Council Bluffs, Iowa, USA
Distance from station: ENE 87mi, 139km
Updated: Fri, 22-Sep-2017 1:35pm CDT
Clear
Clear
 Wind from S
Wind: S 18 mph , 30 km/h, Gust: 30 mph , 48 km/h
Temperature: 90°F , 32°C
Heat Index: 97°F , 36°C
Dew Point: 72°F , 22°C
Humidity: 55%
Barometer: 29.84 inHg , 1010.5 hPa
Clouds: Clear
Visibility: 10 miles , 16 km
2017/09/22 18:35 KCBF 221835Z AUTO 18016G26KT 10SM CLR 32/22 A2984 RMK AO2
KOFK - Norfolk, Nebraska, USA
Distance from station: N 92mi, 148km
Updated: Fri, 22-Sep-2017 12:56pm CDT
Clear
Clear
 Wind from S
Wind: S 21 mph , 33 km/h, Gust: 29 mph , 46 km/h
Temperature: 91°F , 33°C
Heat Index: 95°F , 35°C
Dew Point: 68°F , 20°C
Humidity: 46%
Barometer: 29.73 inHg , 1006.8 hPa
Clouds: Clear
Visibility: 10 miles , 16 km
2017/09/22 17:56 KOFK 221756Z AUTO 17018G25KT 10SM CLR 33/20 A2973 RMK AO2 PK WND 19031/1730 SLP050 T03280200 10328 20239 56008

Metar display script from Saratoga-Weather.org